sensor_id;sensor_type;location;lat;lon;timestamp;pressure;altitude;pressure_sealevel;temperature;humidity
29247;BME280;16272;48.188;9.964;2022-09-30T00:00:05;94820.66;;;9.76;68.35
29247;BME280;16272;48.188;9.964;2022-09-30T00:02:31;94816.59;;;9.88;67.64
29247;BME280;16272;48.188;9.964;2022-09-30T00:04:56;94816.69;;;10.11;67.43
29247;BME280;16272;48.188;9.964;2022-09-30T00:07:21;94823.25;;;10.24;67.23
29247;BME280;16272;48.188;9.964;2022-09-30T00:09:48;94825.63;;;10.19;67.32
29247;BME280;16272;48.188;9.964;2022-09-30T00:12:13;94830.44;;;9.59;69.23
29247;BME280;16272;48.188;9.964;2022-09-30T00:14:39;94832.97;;;9.36;69.32
29247;BME280;16272;48.188;9.964;2022-09-30T00:17:04;94837.28;;;9.45;69.82
29247;BME280;16272;48.188;9.964;2022-09-30T00:19:30;94837.44;;;9.44;70.33
29247;BME280;16272;48.188;9.964;2022-09-30T00:21:55;94845.84;;;9.72;69.32
29247;BME280;16272;48.188;9.964;2022-09-30T00:24:20;94847.44;;;10.37;67.65
29247;BME280;16272;48.188;9.964;2022-09-30T00:26:46;94845.25;;;10.01;68.44
29247;BME280;16272;48.188;9.964;2022-09-30T00:29:11;94857.69;;;9.36;69.48
29247;BME280;16272;48.188;9.964;2022-09-30T00:31:37;94857.69;;;9.12;71.25
29247;BME280;16272;48.188;9.964;2022-09-30T00:34:03;94861.97;;;8.80;72.92
29247;BME280;16272;48.188;9.964;2022-09-30T00:36:46;94869.75;;;9.23;71.11
29247;BME280;16272;48.188;9.964;2022-09-30T00:39:16;94874.41;;;8.96;72.22
29247;BME280;16272;48.188;9.964;2022-09-30T00:41:43;94879.31;;;9.73;69.84
29247;BME280;16272;48.188;9.964;2022-09-30T00:52:35;94884.19;;;9.28;71.52
29247;BME280;16272;48.188;9.964;2022-09-30T00:55:03;94880.00;;;9.59;70.43
29247;BME280;16272;48.188;9.964;2022-09-30T00:57:34;94874.25;;;10.51;68.00
29247;BME280;16272;48.188;9.964;2022-09-30T01:00:01;94866.97;;;10.44;66.88
29247;BME280;16272;48.188;9.964;2022-09-30T01:02:26;94860.59;;;10.62;66.14
29247;BME280;16272;48.188;9.964;2022-09-30T01:04:52;94873.34;;;10.35;67.14
29247;BME280;16272;48.188;9.964;2022-09-30T01:07:20;94887.56;;;10.74;66.99
29247;BME280;16272;48.188;9.964;2022-09-30T01:09:46;94873.06;;;11.08;65.83
29247;BME280;16272;48.188;9.964;2022-09-30T01:12:15;94885.88;;;10.50;67.04
29247;BME280;16272;48.188;9.964;2022-09-30T01:14:45;94876.44;;;10.47;67.47
29247;BME280;16272;48.188;9.964;2022-09-30T01:26:01;94879.97;;;11.40;64.98
29247;BME280;16272;48.188;9.964;2022-09-30T01:38:54;94869.88;;;11.12;66.92
29247;BME280;16272;48.188;9.964;2022-09-30T01:44:09;94880.50;;;11.12;65.78
29247;BME280;16272;48.188;9.964;2022-09-30T01:47:07;94879.84;;;10.56;68.13
29247;BME280;16272;48.188;9.964;2022-09-30T01:49:45;94887.84;;;11.10;66.31
29247;BME280;16272;48.188;9.964;2022-09-30T01:52:15;94886.94;;;10.95;66.14
29247;BME280;16272;48.188;9.964;2022-09-30T01:57:21;94887.00;;;11.33;66.05
29247;BME280;16272;48.188;9.964;2022-09-30T02:02:30;94896.91;;;10.93;67.04
29247;BME280;16272;48.188;9.964;2022-09-30T02:05:06;94905.91;;;10.12;70.46
29247;BME280;16272;48.188;9.964;2022-09-30T02:08:09;94910.53;;;10.19;71.79
29247;BME280;16272;48.188;9.964;2022-09-30T02:11:04;94900.16;;;10.48;68.61
29247;BME280;16272;48.188;9.964;2022-09-30T02:13:40;94910.41;;;10.04;70.19
29247;BME280;16272;48.188;9.964;2022-09-30T02:16:09;94910.88;;;10.16;71.19
29247;BME280;16272;48.188;9.964;2022-09-30T02:19:32;94914.47;;;10.23;69.97
29247;BME280;16272;48.188;9.964;2022-09-30T02:21:36;94919.56;;;9.85;71.22
29247;BME280;16272;48.188;9.964;2022-09-30T02:24:07;94910.00;;;10.40;69.50
29247;BME280;16272;48.188;9.964;2022-09-30T02:26:40;94918.41;;;9.87;71.29
29247;BME280;16272;48.188;9.964;2022-09-30T02:29:16;94913.25;;;9.94;70.63
29247;BME280;16272;48.188;9.964;2022-09-30T02:31:45;94912.66;;;10.23;69.85
29247;BME280;16272;48.188;9.964;2022-09-30T02:34:15;94911.00;;;9.50;71.92
29247;BME280;16272;48.188;9.964;2022-09-30T02:36:51;94910.50;;;9.22;72.77
29247;BME280;16272;48.188;9.964;2022-09-30T02:42:25;94921.94;;;9.22;73.17
29247;BME280;16272;48.188;9.964;2022-09-30T02:44:54;94918.59;;;9.78;72.40
29247;BME280;16272;48.188;9.964;2022-09-30T02:50:05;94906.13;;;9.86;70.81
29247;BME280;16272;48.188;9.964;2022-09-30T02:53:06;94913.31;;;9.36;72.06
29247;BME280;16272;48.188;9.964;2022-09-30T02:58:26;94928.41;;;8.52;75.56
29247;BME280;16272;48.188;9.964;2022-09-30T03:00:53;94925.94;;;8.24;77.34
29247;BME280;16272;48.188;9.964;2022-09-30T03:03:32;94933.34;;;9.31;72.33
29247;BME280;16272;48.188;9.964;2022-09-30T03:05:59;94933.50;;;9.21;72.18
29247;BME280;16272;48.188;9.964;2022-09-30T03:08:25;94939.06;;;8.77;75.05
29247;BME280;16272;48.188;9.964;2022-09-30T03:10:50;94940.44;;;8.97;73.86
29247;BME280;16272;48.188;9.964;2022-09-30T03:24:56;94947.06;;;10.96;67.71
29247;BME280;16272;48.188;9.964;2022-09-30T03:27:34;94942.50;;;11.51;65.26
29247;BME280;16272;48.188;9.964;2022-09-30T03:30:06;94955.88;;;10.57;67.61
29247;BME280;16272;48.188;9.964;2022-09-30T03:35:30;94971.09;;;9.25;73.26
29247;BME280;16272;48.188;9.964;2022-09-30T03:40:58;94958.63;;;11.03;66.45
29247;BME280;16272;48.188;9.964;2022-09-30T03:43:32;94956.91;;;10.87;66.42
29247;BME280;16272;48.188;9.964;2022-09-30T03:46:05;94965.91;;;10.78;67.02
29247;BME280;16272;48.188;9.964;2022-09-30T03:48:35;94973.78;;;9.82;69.60
29247;BME280;16272;48.188;9.964;2022-09-30T03:51:03;94972.28;;;9.38;70.31
29247;BME280;16272;48.188;9.964;2022-09-30T03:53:29;94975.13;;;8.70;74.09
29247;BME280;16272;48.188;9.964;2022-09-30T03:55:55;94968.53;;;10.30;68.76
29247;BME280;16272;48.188;9.964;2022-09-30T03:58:21;94966.00;;;9.64;70.36
29247;BME280;16272;48.188;9.964;2022-09-30T04:00:52;94968.88;;;10.27;68.61
29247;BME280;16272;48.188;9.964;2022-09-30T04:03:19;94973.56;;;10.08;68.28
29247;BME280;16272;48.188;9.964;2022-09-30T04:05:46;94992.88;;;8.86;72.98
29247;BME280;16272;48.188;9.964;2022-09-30T04:08:12;94987.13;;;8.29;76.04
29247;BME280;16272;48.188;9.964;2022-09-30T04:10:41;94992.97;;;8.07;77.62
29247;BME280;16272;48.188;9.964;2022-09-30T04:13:07;94997.28;;;7.64;79.70
29247;BME280;16272;48.188;9.964;2022-09-30T04:15:34;94992.47;;;8.38;76.31
29247;BME280;16272;48.188;9.964;2022-09-30T04:17:59;94998.53;;;8.22;77.65
29247;BME280;16272;48.188;9.964;2022-09-30T04:20:25;94986.06;;;8.14;77.81
29247;BME280;16272;48.188;9.964;2022-09-30T04:22:50;94989.47;;;8.59;75.69
29247;BME280;16272;48.188;9.964;2022-09-30T04:25:15;94991.03;;;8.78;74.96
29247;BME280;16272;48.188;9.964;2022-09-30T04:27:41;94993.56;;;8.96;74.25
29247;BME280;16272;48.188;9.964;2022-09-30T04:30:06;94994.09;;;8.31;76.88
29247;BME280;16272;48.188;9.964;2022-09-30T04:32:32;95001.09;;;8.40;75.20
29247;BME280;16272;48.188;9.964;2022-09-30T04:34:57;95004.06;;;7.84;77.95
29247;BME280;16272;48.188;9.964;2022-09-30T04:37:22;94999.88;;;7.55;79.20
29247;BME280;16272;48.188;9.964;2022-09-30T04:39:48;95002.69;;;7.80;78.60
29247;BME280;16272;48.188;9.964;2022-09-30T04:42:14;94997.16;;;8.18;77.71
29247;BME280;16272;48.188;9.964;2022-09-30T04:44:41;94996.25;;;9.12;73.07
29247;BME280;16272;48.188;9.964;2022-09-30T04:47:06;94996.63;;;9.91;69.64
29247;BME280;16272;48.188;9.964;2022-09-30T04:49:32;94998.63;;;10.70;67.60
29247;BME280;16272;48.188;9.964;2022-09-30T04:51:57;95004.00;;;10.54;68.23
29247;BME280;16272;48.188;9.964;2022-09-30T04:54:22;94989.47;;;10.17;67.94
29247;BME280;16272;48.188;9.964;2022-09-30T04:56:49;94996.31;;;9.86;69.23
29247;BME280;16272;48.188;9.964;2022-09-30T04:59:15;94995.00;;;9.82;69.34
29247;BME280;16272;48.188;9.964;2022-09-30T05:01:41;94999.75;;;10.84;67.09
29247;BME280;16272;48.188;9.964;2022-09-30T05:04:08;95010.72;;;10.81;66.46
29247;BME280;16272;48.188;9.964;2022-09-30T05:06:34;95010.34;;;10.11;67.76
29247;BME280;16272;48.188;9.964;2022-09-30T05:09:00;95014.66;;;10.37;68.01
29247;BME280;16272;48.188;9.964;2022-09-30T05:11:25;95018.81;;;10.88;66.02
29247;BME280;16272;48.188;9.964;2022-09-30T05:13:51;95013.38;;;9.67;70.50
29247;BME280;16272;48.188;9.964;2022-09-30T05:16:17;95007.19;;;10.33;69.01
29247;BME280;16272;48.188;9.964;2022-09-30T05:18:43;95017.81;;;10.89;67.00
29247;BME280;16272;48.188;9.964;2022-09-30T05:21:11;95017.00;;;10.32;68.42
29247;BME280;16272;48.188;9.964;2022-09-30T05:23:37;95023.31;;;9.65;71.64
29247;BME280;16272;48.188;9.964;2022-09-30T05:26:03;95022.25;;;10.57;67.62
29247;BME280;16272;48.188;9.964;2022-09-30T05:28:29;95017.50;;;11.15;66.17
29247;BME280;16272;48.188;9.964;2022-09-30T05:31:00;95029.38;;;10.56;67.65
29247;BME280;16272;48.188;9.964;2022-09-30T05:33:27;95040.22;;;10.14;68.69
29247;BME280;16272;48.188;9.964;2022-09-30T05:36:00;95042.16;;;10.61;67.03
29247;BME280;16272;48.188;9.964;2022-09-30T05:38:26;95045.88;;;9.94;69.60
29247;BME280;16272;48.188;9.964;2022-09-30T05:40:51;95050.16;;;10.20;68.95
29247;BME280;16272;48.188;9.964;2022-09-30T05:43:18;95042.44;;;10.74;66.45
29247;BME280;16272;48.188;9.964;2022-09-30T05:45:51;95043.50;;;10.96;65.42
29247;BME280;16272;48.188;9.964;2022-09-30T05:48:17;95045.94;;;10.75;66.23
29247;BME280;16272;48.188;9.964;2022-09-30T05:50:42;95054.19;;;11.19;65.04
29247;BME280;16272;48.188;9.964;2022-09-30T05:53:08;95046.91;;;11.21;65.46
29247;BME280;16272;48.188;9.964;2022-09-30T05:55:33;95053.28;;;10.56;66.98
29247;BME280;16272;48.188;9.964;2022-09-30T05:57:58;95054.38;;;11.18;65.35
29247;BME280;16272;48.188;9.964;2022-09-30T06:00:24;95061.78;;;10.10;68.12
29247;BME280;16272;48.188;9.964;2022-09-30T06:02:50;95069.09;;;10.00;68.38
29247;BME280;16272;48.188;9.964;2022-09-30T06:05:16;95083.50;;;9.14;71.75
29247;BME280;16272;48.188;9.964;2022-09-30T06:07:41;95084.97;;;9.84;70.69
29247;BME280;16272;48.188;9.964;2022-09-30T06:10:07;95088.28;;;10.60;67.37
29247;BME280;16272;48.188;9.964;2022-09-30T06:12:36;95094.28;;;10.21;68.28
29247;BME280;16272;48.188;9.964;2022-09-30T06:15:02;95088.41;;;10.83;67.10
29247;BME280;16272;48.188;9.964;2022-09-30T06:17:28;95097.75;;;10.54;65.99
29247;BME280;16272;48.188;9.964;2022-09-30T06:19:53;95100.25;;;11.51;64.38
29247;BME280;16272;48.188;9.964;2022-09-30T06:22:19;95109.34;;;10.70;67.11
29247;BME280;16272;48.188;9.964;2022-09-30T06:24:44;95114.13;;;10.91;67.33
29247;BME280;16272;48.188;9.964;2022-09-30T06:27:10;95113.50;;;10.56;67.32
29247;BME280;16272;48.188;9.964;2022-09-30T06:29:36;95115.59;;;9.02;72.44
29247;BME280;16272;48.188;9.964;2022-09-30T06:32:02;95119.09;;;9.70;70.56
29247;BME280;16272;48.188;9.964;2022-09-30T06:34:28;95116.31;;;10.05;69.97
29247;BME280;16272;48.188;9.964;2022-09-30T06:36:53;95129.28;;;9.32;72.65
29247;BME280;16272;48.188;9.964;2022-09-30T06:39:19;95118.47;;;10.09;70.20
29247;BME280;16272;48.188;9.964;2022-09-30T06:41:44;95125.16;;;10.55;67.92
29247;BME280;16272;48.188;9.964;2022-09-30T06:44:11;95123.13;;;11.21;66.48
29247;BME280;16272;48.188;9.964;2022-09-30T06:46:37;95132.09;;;10.64;67.14
29247;BME280;16272;48.188;9.964;2022-09-30T06:49:02;95129.22;;;10.90;67.93
29247;BME280;16272;48.188;9.964;2022-09-30T06:51:29;95136.91;;;10.60;68.88
29247;BME280;16272;48.188;9.964;2022-09-30T06:53:58;95147.78;;;10.98;67.96
29247;BME280;16272;48.188;9.964;2022-09-30T06:56:23;95152.97;;;10.83;68.53
29247;BME280;16272;48.188;9.964;2022-09-30T06:58:49;95140.00;;;12.07;64.02
29247;BME280;16272;48.188;9.964;2022-09-30T07:01:14;95141.34;;;12.03;64.05
29247;BME280;16272;48.188;9.964;2022-09-30T07:03:42;95146.38;;;12.44;63.37
29247;BME280;16272;48.188;9.964;2022-09-30T07:06:09;95131.91;;;12.62;62.96
29247;BME280;16272;48.188;9.964;2022-09-30T07:08:36;95135.13;;;12.72;62.31
29247;BME280;16272;48.188;9.964;2022-09-30T07:11:08;95139.97;;;11.84;64.84
29247;BME280;16272;48.188;9.964;2022-09-30T07:13:38;95140.56;;;11.32;66.14
29247;BME280;16272;48.188;9.964;2022-09-30T07:16:04;95135.03;;;12.27;64.74
29247;BME280;16272;48.188;9.964;2022-09-30T07:18:30;95148.38;;;11.65;64.76
29247;BME280;16272;48.188;9.964;2022-09-30T07:20:56;95151.59;;;11.12;68.14
29247;BME280;16272;48.188;9.964;2022-09-30T07:23:22;95158.63;;;10.15;71.93
29247;BME280;16272;48.188;9.964;2022-09-30T07:25:57;95171.69;;;10.98;68.73
29247;BME280;16272;48.188;9.964;2022-09-30T07:28:23;95163.13;;;10.47;70.15
29247;BME280;16272;48.188;9.964;2022-09-30T07:30:56;95163.31;;;10.54;70.80
29247;BME280;16272;48.188;9.964;2022-09-30T07:33:23;95156.09;;;12.14;65.58
29247;BME280;16272;48.188;9.964;2022-09-30T07:35:53;95162.00;;;12.47;64.72
29247;BME280;16272;48.188;9.964;2022-09-30T07:38:20;95150.16;;;12.50;65.20
29247;BME280;16272;48.188;9.964;2022-09-30T07:40:54;95152.34;;;12.00;65.56
29247;BME280;16272;48.188;9.964;2022-09-30T07:43:22;95167.00;;;11.65;67.01
29247;BME280;16272;48.188;9.964;2022-09-30T07:45:48;95159.31;;;11.30;67.63
29247;BME280;16272;48.188;9.964;2022-09-30T07:48:14;95170.50;;;11.97;65.99
29247;BME280;16272;48.188;9.964;2022-09-30T07:50:58;95171.56;;;10.83;68.65
29247;BME280;16272;48.188;9.964;2022-09-30T07:53:24;95172.59;;;10.74;69.24
29247;BME280;16272;48.188;9.964;2022-09-30T07:55:49;95178.19;;;11.91;67.07
29247;BME280;16272;48.188;9.964;2022-09-30T07:58:15;95170.41;;;12.36;64.88
29247;BME280;16272;48.188;9.964;2022-09-30T08:00:40;95177.56;;;12.12;66.07
29247;BME280;16272;48.188;9.964;2022-09-30T08:03:07;95172.34;;;12.80;64.35
29247;BME280;16272;48.188;9.964;2022-09-30T08:05:38;95178.44;;;12.28;65.97
29247;BME280;16272;48.188;9.964;2022-09-30T08:08:04;95170.50;;;12.66;64.81
29247;BME280;16272;48.188;9.964;2022-09-30T08:10:33;95168.53;;;12.22;64.10
29247;BME280;16272;48.188;9.964;2022-09-30T08:12:58;95162.41;;;12.36;65.98
29247;BME280;16272;48.188;9.964;2022-09-30T08:15:24;95172.84;;;11.91;67.28
29247;BME280;16272;48.188;9.964;2022-09-30T08:17:49;95182.06;;;12.58;64.44
29247;BME280;16272;48.188;9.964;2022-09-30T08:20:14;95172.19;;;12.44;65.66
29247;BME280;16272;48.188;9.964;2022-09-30T08:22:40;95181.03;;;12.13;66.09
29247;BME280;16272;48.188;9.964;2022-09-30T08:25:06;95181.56;;;12.78;64.42
29247;BME280;16272;48.188;9.964;2022-09-30T08:27:31;95178.56;;;13.11;63.41
29247;BME280;16272;48.188;9.964;2022-09-30T08:29:56;95180.28;;;12.50;65.54
29247;BME280;16272;48.188;9.964;2022-09-30T08:32:22;95190.88;;;12.36;66.47
29247;BME280;16272;48.188;9.964;2022-09-30T08:34:47;95197.84;;;11.74;66.14
29247;BME280;16272;48.188;9.964;2022-09-30T08:37:12;95210.88;;;11.61;67.66
29247;BME280;16272;48.188;9.964;2022-09-30T08:39:38;95211.25;;;11.49;68.35
29247;BME280;16272;48.188;9.964;2022-09-30T08:42:33;95215.91;;;11.55;67.96
29247;BME280;16272;48.188;9.964;2022-09-30T08:45:04;95214.78;;;11.81;67.24
29247;BME280;16272;48.188;9.964;2022-09-30T08:50:21;95210.66;;;12.41;64.08
29247;BME280;16272;48.188;9.964;2022-09-30T08:52:50;95219.44;;;11.87;66.60
29247;BME280;16272;48.188;9.964;2022-09-30T08:57:47;95219.72;;;12.93;63.93
29247;BME280;16272;48.188;9.964;2022-09-30T09:00:16;95225.06;;;12.70;65.54
29247;BME280;16272;48.188;9.964;2022-09-30T09:10:40;95243.72;;;13.08;64.37
29247;BME280;16272;48.188;9.964;2022-09-30T09:21:49;95248.38;;;11.82;67.12
29247;BME280;16272;48.188;9.964;2022-09-30T09:24:21;95243.09;;;11.66;67.93
29247;BME280;16272;48.188;9.964;2022-09-30T09:26:48;95248.88;;;11.86;67.63
29247;BME280;16272;48.188;9.964;2022-09-30T09:31:59;95245.34;;;12.33;64.85
29247;BME280;16272;48.188;9.964;2022-09-30T09:34:28;95258.94;;;11.59;67.52
29247;BME280;16272;48.188;9.964;2022-09-30T09:37:14;95252.13;;;12.82;65.38
29247;BME280;16272;48.188;9.964;2022-09-30T09:39:49;95264.75;;;12.88;64.96
29247;BME280;16272;48.188;9.964;2022-09-30T09:45:34;95260.19;;;13.12;61.63
29247;BME280;16272;48.188;9.964;2022-09-30T09:47:55;95270.41;;;12.39;66.16
29247;BME280;16272;48.188;9.964;2022-09-30T09:55:43;95265.69;;;12.72;64.41
29247;BME280;16272;48.188;9.964;2022-09-30T09:58:12;95272.03;;;13.32;63.16
29247;BME280;16272;48.188;9.964;2022-09-30T10:00:38;95273.47;;;13.73;61.42
29247;BME280;16272;48.188;9.964;2022-09-30T10:05:40;95300.03;;;12.67;63.51
29247;BME280;16272;48.188;9.964;2022-09-30T10:08:18;95301.34;;;12.71;64.08
29247;BME280;16272;48.188;9.964;2022-09-30T10:11:17;95309.31;;;12.48;65.58
29247;BME280;16272;48.188;9.964;2022-09-30T10:13:45;95316.63;;;12.46;65.17
29247;BME280;16272;48.188;9.964;2022-09-30T10:16:30;95324.97;;;11.06;69.42
29247;BME280;16272;48.188;9.964;2022-09-30T10:18:57;95321.47;;;11.38;68.21
29247;BME280;16272;48.188;9.964;2022-09-30T10:21:25;95330.19;;;11.80;67.90
29247;BME280;16272;48.188;9.964;2022-09-30T10:23:50;95324.97;;;12.43;65.33
29247;BME280;16272;48.188;9.964;2022-09-30T10:26:19;95322.31;;;13.73;61.52
29247;BME280;16272;48.188;9.964;2022-09-30T10:28:55;95316.25;;;13.79;62.79
29247;BME280;16272;48.188;9.964;2022-09-30T10:31:27;95331.97;;;12.04;68.44
29247;BME280;16272;48.188;9.964;2022-09-30T10:36:40;95325.75;;;11.64;67.22
29247;BME280;16272;48.188;9.964;2022-09-30T10:42:17;95324.94;;;11.55;69.40
29247;BME280;16272;48.188;9.964;2022-09-30T10:44:47;95321.50;;;12.03;67.90
29247;BME280;16272;48.188;9.964;2022-09-30T10:47:16;95324.97;;;10.81;71.62
29247;BME280;16272;48.188;9.964;2022-09-30T10:50:07;95319.47;;;12.13;67.51
29247;BME280;16272;48.188;9.964;2022-09-30T10:52:58;95325.47;;;11.01;71.27
29247;BME280;16272;48.188;9.964;2022-09-30T10:55:45;95312.50;;;11.31;70.68
29247;BME280;16272;48.188;9.964;2022-09-30T11:00:54;95314.00;;;11.26;70.60
29247;BME280;16272;48.188;9.964;2022-09-30T11:03:24;95315.09;;;12.83;66.62
29247;BME280;16272;48.188;9.964;2022-09-30T11:05:52;95305.78;;;14.44;61.17
29247;BME280;16272;48.188;9.964;2022-09-30T11:08:29;95303.00;;;14.01;62.23
29247;BME280;16272;48.188;9.964;2022-09-30T11:18:56;95318.97;;;11.45;71.12
29247;BME280;16272;48.188;9.964;2022-09-30T11:21:38;95325.84;;;12.04;68.43
29247;BME280;16272;48.188;9.964;2022-09-30T11:35:53;95345.63;;;12.41;68.49
29247;BME280;16272;48.188;9.964;2022-09-30T11:38:42;95342.69;;;12.27;68.34
29247;BME280;16272;48.188;9.964;2022-09-30T11:41:35;95338.25;;;13.05;65.24
29247;BME280;16272;48.188;9.964;2022-09-30T11:44:34;95331.94;;;14.49;60.32
29247;BME280;16272;48.188;9.964;2022-09-30T11:52:55;95339.78;;;13.00;63.94
29247;BME280;16272;48.188;9.964;2022-09-30T11:55:48;95335.47;;;13.75;64.53
29247;BME280;16272;48.188;9.964;2022-09-30T11:58:25;95335.13;;;15.11;60.92
29247;BME280;16272;48.188;9.964;2022-09-30T12:01:04;95336.78;;;13.79;61.69
29247;BME280;16272;48.188;9.964;2022-09-30T12:03:39;95355.69;;;12.85;66.38
29247;BME280;16272;48.188;9.964;2022-09-30T12:06:31;95351.44;;;12.76;66.47
29247;BME280;16272;48.188;9.964;2022-09-30T12:09:04;95338.28;;;13.44;63.82
29247;BME280;16272;48.188;9.964;2022-09-30T12:12:04;95340.19;;;13.88;63.11
29247;BME280;16272;48.188;9.964;2022-09-30T12:14:26;95349.88;;;12.58;65.06
29247;BME280;16272;48.188;9.964;2022-09-30T12:16:54;95336.34;;;14.05;62.31
29247;BME280;16272;48.188;9.964;2022-09-30T12:19:33;95335.09;;;14.38;61.35
29247;BME280;16272;48.188;9.964;2022-09-30T12:22:24;95331.72;;;14.29;60.16
29247;BME280;16272;48.188;9.964;2022-09-30T12:24:52;95329.50;;;13.58;61.81
29247;BME280;16272;48.188;9.964;2022-09-30T12:27:31;95331.59;;;15.10;59.39
29247;BME280;16272;48.188;9.964;2022-09-30T12:30:03;95323.75;;;15.80;59.33
29247;BME280;16272;48.188;9.964;2022-09-30T12:36:16;95311.63;;;14.84;59.83
29247;BME280;16272;48.188;9.964;2022-09-30T12:39:15;95318.47;;;14.57;59.75
29247;BME280;16272;48.188;9.964;2022-09-30T12:44:34;95333.53;;;15.66;57.38
29247;BME280;16272;48.188;9.964;2022-09-30T12:47:31;95340.38;;;13.71;62.67
29247;BME280;16272;48.188;9.964;2022-09-30T12:50:02;95326.97;;;15.19;61.41
29247;BME280;16272;48.188;9.964;2022-09-30T12:52:32;95335.00;;;14.31;61.16
29247;BME280;16272;48.188;9.964;2022-09-30T12:55:07;95322.94;;;15.79;57.69
29247;BME280;16272;48.188;9.964;2022-09-30T12:57:38;95314.06;;;16.62;56.44
29247;BME280;16272;48.188;9.964;2022-09-30T13:00:14;95317.75;;;14.48;61.88
29247;BME280;16272;48.188;9.964;2022-09-30T13:02:43;95299.50;;;15.88;58.88
29247;BME280;16272;48.188;9.964;2022-09-30T13:10:33;95311.16;;;15.52;58.29
29247;BME280;16272;48.188;9.964;2022-09-30T13:13:28;95316.53;;;14.51;57.56
29247;BME280;16272;48.188;9.964;2022-09-30T13:16:02;95317.06;;;13.65;61.85
29247;BME280;16272;48.188;9.964;2022-09-30T13:24:02;95316.94;;;14.48;60.58
29247;BME280;16272;48.188;9.964;2022-09-30T13:31:29;95337.03;;;13.31;63.17
29247;BME280;16272;48.188;9.964;2022-09-30T13:36:37;95318.47;;;15.65;57.60
29247;BME280;16272;48.188;9.964;2022-09-30T13:41:35;95323.06;;;15.99;56.78
29247;BME280;16272;48.188;9.964;2022-09-30T13:44:18;95333.50;;;14.95;59.84
29247;BME280;16272;48.188;9.964;2022-09-30T13:46:53;95330.44;;;15.91;57.40
29247;BME280;16272;48.188;9.964;2022-09-30T13:49:37;95328.34;;;16.69;56.28
29247;BME280;16272;48.188;9.964;2022-09-30T13:52:25;95319.66;;;16.19;57.78
29247;BME280;16272;48.188;9.964;2022-09-30T13:54:53;95326.66;;;13.89;62.10
29247;BME280;16272;48.188;9.964;2022-09-30T14:00:39;95325.22;;;14.68;59.76
29247;BME280;16272;48.188;9.964;2022-09-30T14:03:30;95326.16;;;15.75;58.84
29247;BME280;16272;48.188;9.964;2022-09-30T14:06:17;95339.59;;;15.53;59.10
29247;BME280;16272;48.188;9.964;2022-09-30T14:09:15;95336.94;;;15.32;59.90
29247;BME280;16272;48.188;9.964;2022-09-30T14:12:02;95327.88;;;14.68;59.14
29247;BME280;16272;48.188;9.964;2022-09-30T14:17:39;95330.47;;;15.48;60.49
29247;BME280;16272;48.188;9.964;2022-09-30T14:20:29;95322.34;;;16.19;57.57
29247;BME280;16272;48.188;9.964;2022-09-30T14:23:00;95325.59;;;16.14;55.45
29247;BME280;16272;48.188;9.964;2022-09-30T14:25:29;95331.88;;;15.15;58.82
29247;BME280;16272;48.188;9.964;2022-09-30T14:28:04;95333.44;;;15.53;57.64
29247;BME280;16272;48.188;9.964;2022-09-30T14:30:40;95328.41;;;14.78;59.38
29247;BME280;16272;48.188;9.964;2022-09-30T14:33:22;95326.59;;;14.64;59.40
29247;BME280;16272;48.188;9.964;2022-09-30T14:35:51;95328.78;;;15.40;58.38
29247;BME280;16272;48.188;9.964;2022-09-30T14:38:20;95321.59;;;16.32;57.33
29247;BME280;16272;48.188;9.964;2022-09-30T14:40:50;95322.06;;;17.17;56.14
29247;BME280;16272;48.188;9.964;2022-09-30T14:43:20;95333.69;;;14.57;57.87
29247;BME280;16272;48.188;9.964;2022-09-30T14:45:51;95343.31;;;15.31;58.14
29247;BME280;16272;48.188;9.964;2022-09-30T14:48:23;95346.88;;;14.95;59.20
29247;BME280;16272;48.188;9.964;2022-09-30T14:51:04;95345.72;;;14.01;59.47
29247;BME280;16272;48.188;9.964;2022-09-30T14:53:34;95341.13;;;14.76;59.13
29247;BME280;16272;48.188;9.964;2022-09-30T14:56:01;95345.41;;;14.41;59.95
29247;BME280;16272;48.188;9.964;2022-09-30T14:58:29;95346.13;;;15.01;59.55
29247;BME280;16272;48.188;9.964;2022-09-30T15:01:15;95358.03;;;15.41;56.31
29247;BME280;16272;48.188;9.964;2022-09-30T15:03:57;95357.41;;;15.68;56.35
29247;BME280;16272;48.188;9.964;2022-09-30T15:06:27;95349.09;;;15.77;57.28
29247;BME280;16272;48.188;9.964;2022-09-30T15:09:05;95356.28;;;15.77;55.83
29247;BME280;16272;48.188;9.964;2022-09-30T15:11:32;95365.53;;;15.53;56.71
29247;BME280;16272;48.188;9.964;2022-09-30T15:14:03;95375.28;;;14.96;57.57
29247;BME280;16272;48.188;9.964;2022-09-30T15:16:31;95357.88;;;15.99;55.93
29247;BME280;16272;48.188;9.964;2022-09-30T15:18:56;95365.41;;;14.96;58.14
29247;BME280;16272;48.188;9.964;2022-09-30T15:21:24;95373.63;;;14.13;59.15
29247;BME280;16272;48.188;9.964;2022-09-30T15:23:53;95376.72;;;14.47;57.96
29247;BME280;16272;48.188;9.964;2022-09-30T15:26:21;95376.53;;;14.78;57.91
29247;BME280;16272;48.188;9.964;2022-09-30T15:28:47;95373.84;;;14.78;56.84
29247;BME280;16272;48.188;9.964;2022-09-30T15:31:20;95377.47;;;14.26;57.99
29247;BME280;16272;48.188;9.964;2022-09-30T15:33:46;95375.72;;;14.63;59.51
29247;BME280;16272;48.188;9.964;2022-09-30T15:36:17;95381.03;;;13.73;59.88
29247;BME280;16272;48.188;9.964;2022-09-30T15:38:50;95380.19;;;15.35;57.19
29247;BME280;16272;48.188;9.964;2022-09-30T15:41:16;95369.13;;;14.80;57.42
29247;BME280;16272;48.188;9.964;2022-09-30T15:43:45;95379.59;;;14.45;58.92
29247;BME280;16272;48.188;9.964;2022-09-30T15:48:43;95384.94;;;14.15;59.12
29247;BME280;16272;48.188;9.964;2022-09-30T15:51:39;95380.91;;;15.22;57.30
29247;BME280;16272;48.188;9.964;2022-09-30T15:56:39;95373.72;;;14.35;58.19
29247;BME280;16272;48.188;9.964;2022-09-30T15:59:06;95370.13;;;14.94;56.13
29247;BME280;16272;48.188;9.964;2022-09-30T16:04:30;95361.00;;;14.07;62.02
29247;BME280;16272;48.188;9.964;2022-09-30T16:07:05;95373.09;;;13.65;62.91
29247;BME280;16272;48.188;9.964;2022-09-30T16:09:34;95373.97;;;13.42;63.26
29247;BME280;16272;48.188;9.964;2022-09-30T16:14:50;95373.06;;;14.18;60.34
29247;BME280;16272;48.188;9.964;2022-09-30T16:19:59;95361.63;;;14.39;59.83